Tiempo atmosférico en la estación meteorológica de Gijón, Campus, Asturias (26 m.)



Fecha
DESCASC
Temp. máxima en grados centígrados (hora)
DESCASC
Temp. mínima en grados centígrados (hora)
DESCASC
Temp. media en grados centígrados
DESCASC
Racha de viento máxima en m/sg (hora)
DESCASC
Velocidad máxima media en intervalos de 10 minutos(hora)
DESCASC
Precipitaciones diarias en mm
DESCASC
Precipitaciones de 00:00 a 06:00 en mm
DESCASC
Precipitaciones de 06:00 a 12:00 en mm
DESCASC
Precipitaciones de 12:00 a 18:00 en mm
DESCASC
Precipitaciones de 18:00 a 24:00 en mm
DESCASC
22-08-2019 26.5 (15:20) 12.3 (07:30) 19.4 9.72 (20:40) 5.28 (15:50) 0 0 0 0 0
21-08-2019 25 (15:40) 14 (08:00) 19.5 10 (14:00) 5.83 (15:20) 0 0 0 0 0
20-08-2019 23 (16:30) 15.6 (07:30) 19.3 10.28 (19:00) 5.28 (19:00) 0.8 0.6 0.2 0 0
19-08-2019 22.9 (14:50) 15.2 (08:00) 19 7.5 (14:50) 3.61 (16:00) 0 0 0 0 0
18-08-2019 19.8 (00:00) 16.9 (00:00) 18.3 8.61 (09:40) 5 (09:40) 12 0 6 6 0
17-08-2019 28.7 (13:10) 14.4 (00:00) 21.6 7.5 (13:20) 4.72 (13:20) 0 0 0 0 0
16-08-2019 23.8 (12:10) 11.5 (00:00) 17.6 8.61 (16:50) 5.83 (16:40) 0 0 0 0 0
15-08-2019 23.6 (17:40) 16.7 (00:00) 20.2 7.5 (17:30) 4.44 (17:20) 0 0 0 0 0
14-08-2019 26 (13:50) 12.5 (00:00) 19.3 7.22 (15:00) 4.44 (15:00) 0 0 0 0 0
13-08-2019 -- (--) -- (--) -- -- (--) -- (--) -- 0 0 -- 0
12-08-2019 21 (16:30) 12.4 (00:00) 16.7 7.5 (16:50) 4.17 (15:50) 2.2 0 0.8 1.4 0
11-08-2019 21.9 (14:20) 14.5 (00:00) 18.2 9.72 (17:10) 5.83 (17:10) 1.8 0 0 1.6 0.2
10-08-2019 24.2 (16:40) 14 (00:00) 19.1 7.78 (13:00) 5.28 (13:10) 0 0 0 0 0
09-08-2019 26.5 (16:40) 19.8 (00:00) 23.1 6.11 (02:50) 3.61 (17:00) 0 0 0 0 0
08-08-2019 32.6 (16:10) 19.4 (00:00) 26 6.67 (14:50) 4.44 (14:10) 0 0 0 0 0
07-08-2019 27.2 (15:00) 16.2 (00:00) 21.7 6.39 (14:00) 3.61 (12:50) 0.2 0 0 0 0.2
06-08-2019 24.8 (12:00) 16 (00:00) 20.4 7.22 (14:30) 4.72 (14:20) 6.2 0 0 0 6.2
05-08-2019 25.7 (18:00) 16.3 (00:00) 21 6.67 (16:50) 4.44 (15:20) 0 0 0 0 0
04-08-2019 -- (--) -- (--) -- -- (--) -- (--) -- -- 0 0 0
03-08-2019 -- (--) -- (--) -- -- (--) -- (--) -- 0 -- -- 0
02-08-2019 -- (--) -- (--) -- -- (--) -- (--) -- -- -- 0 --
01-08-2019 -- (--) -- (--) -- -- (--) -- (--) -- 0 -- 0 --
31-07-2019 -- (--) -- (--) -- -- (--) -- (--) 0 0 0 0 0
30-07-2019 21.3 (14:10) 14.7 (00:00) 18 10 (15:30) 6.11 (14:40) 0 0 0 0 0
29-07-2019 25.8 (14:20) 13.9 (00:00) 19.8 14.17 (19:40) 6.94 (15:00) 0 0 0 0 0
28-07-2019 24.3 (18:10) 12 (00:00) 18.1 7.5 (15:10) 5 (14:50) 0 0 0 0 0
27-07-2019 21.4 (15:50) 15.1 (00:00) 18.3 7.22 (16:10) 5 (16:30) 4.6 1.2 2.6 0.8 0
26-07-2019 21.8 (13:30) 16.9 (00:00) 19.3 7.5 (16:10) 5.56 (16:20) 4.6 3.8 0 0 0.8

Gráficas

Temp. máximas Temp. mínimas Temp. medias Precipitaciones Rachas de viento máximas Velocidades máximas media en intervalos de 10 minutos

Datos horarios

Fecha y hora oficial Temperatura (ºC) Velocidad del viento (km/h) Dirección del viento Racha (km/h) Dirección de racha Precipitación (mm) Presión (hPa) Tendencia (hPa) Humedad (%)
2019-08-24 23:00:00 19.5 3 Norte 8 Norte 0 1016.3 0.6 80
2019-08-24 22:00:00 19.6 6 Norte 12 Noroeste 0 1016.1 0.3 78
2019-08-24 21:00:00 19.8 9 Norte 14 Norte 0 1015.6 -0.4 76
2019-08-24 20:00:00 20.2 8 Norte 18 Noroeste 0 1015.7 -0.4 75
2019-08-24 19:00:00 20.6 11 Norte 17 Norte 0 1015.8 -0.3 72
2019-08-24 18:00:00 20.7 12 Noroeste 18 Noroeste 0 1016 0.1 73
2019-08-24 17:00:00 20.9 12 Noroeste 20 Noroeste 0 1016.1 0.4 73
2019-08-24 16:00:00 20.6 11 Noroeste 19 Noroeste 0 1016.1 0.4 77
2019-08-24 15:00:00 20.7 11 Noroeste 21 Noroeste 0 1015.9 0.4 79
2019-08-24 14:00:00 20.9 13 Noroeste 21 Noroeste 0 1015.7 0.7 78
2019-08-24 13:00:00 20.3 14 Noroeste 23 Noroeste 0 1015.7 0.9 79
2019-08-24 12:00:00 20.2 12 Noroeste 21 Noroeste 0 1015.5 1 82
2019-08-24 11:00:00 20.6 8 Noroeste 14 Noroeste 0 1015 0.9 80
2019-08-24 10:00:00 20.1 3 Sudoeste 11 Sudoeste 0 1014.8 1.1 83
2019-08-24 09:00:00 19.5 3 Oeste 7 Oeste 0 1014.5 0.9 88
2019-08-24 08:00:00 18.9 4 Oeste 9 Oeste 0 1014.1 0.8 90
2019-08-24 07:00:00 17.5 3 Sudoeste 6 Sur 0 1013.7 0.5 97
2019-08-24 06:00:00 15.8 5 Sudeste 7 Sudeste 0 1013.6 0.4 95
2019-08-24 05:00:00 15.8 3 Sudeste 7 Sudeste 0 1013.3 -0.3 94
2019-08-24 04:00:00 16.4 6 Sudeste 7 Este 0 1013.2 -0.3 93
2019-08-24 03:00:00 17.1 3 Sudeste 6 Sudeste 0 1013.2 -0.2 92
2019-08-24 02:00:00 17.8 5 Sudeste 8 Sudeste 0 1013.6 0.5 92
2019-08-24 01:00:00 18.6 0 Calma 4 Este 0 1013.5 1.2 91
2019-08-24 00:00:00 19.5 0 Calma 4 Sudeste 0 1013.4 1.5 88
2019-08-23 23:00:00 20.6 4 Sur 7 Sudoeste 0 1013.1 1.4 84
2019-08-23 22:00:00 22.1 3 Sudoeste 8 Sudoeste 0 1012.3 0.7 78
2019-08-23 21:00:00 24.5 4 Oeste 9 Oeste 0 1011.9 0.3 68
2019-08-23 20:00:00 27.1 4 Oeste 12 Noroeste 0 1011.7 -0.2 57
2019-08-23 19:00:00 28.3 6 Noroeste 18 Norte 0 1011.6 -0.8 52
2019-08-23 18:00:00 30.8 13 Norte 19 Norte 0 1011.6 -1.3 43
2019-08-23 17:00:00 33.4 10 Norte 16 Norte 0 1011.9 -1.4 36
2019-08-23 16:00:00 31.1 13 Norte 18 Norte 0 1012.4 -1.2 42
2019-08-23 15:00:00 29.9 10 Norte 16 Norte 0 1012.9 -1 45
2019-08-23 14:00:00 29.1 5 Norte 16 Norte 0 1013.3 -1.1 50
2019-08-23 13:00:00 27.4 11 Norte 19 Nordeste 0 1013.6 -0.8 53
2019-08-23 12:00:00 24.9 3 Norte 8 Nordeste 0 1013.9 -0.9 61
2019-08-23 11:00:00 22.4 3 Oeste 7 Oeste 0 1014.4 -0.7 66
2019-08-23 10:00:00 18.9 2 Noroeste 4 Noroeste 0 1014.4 -0.8 83
2019-08-23 09:00:00 15.1 3 Sudeste 6 Sudeste 0 1014.8 -0.7 97
2019-08-23 08:00:00 12.9 2 Sur 5 Este 0 1015.1 -0.7 97
2019-08-23 07:00:00 13 2 Sudeste 5 Sudeste 0 1015.2 -1 96
2019-08-23 06:00:00 13.4 5 Sudeste 8 Sudeste 0 1015.5 -0.9 95
2019-08-23 05:00:00 14.1 4 Sudeste 8 Sudeste 0 1015.8 -0.9 94
2019-08-23 04:00:00 15.3 5 Sudeste 7 Sudeste 0 1016.2 -0.9 92
2019-08-23 03:00:00 17.5 5 Este 10 Este 0 1016.4 -0.5 85
2019-08-23 02:00:00 18 7 Este 13 Sudeste 0 1016.7 -0.3 86
2019-08-23 01:00:00 18.4 3 Nordeste 9 Este 0 1017.1 0.2 85
2019-08-23 00:00:00 19.4 4 Nordeste 10 Este 0 1016.9 0.5 81
2019-08-22 23:00:00 20 5 Este 18 Este 0 1017 0.5 78
2019-08-22 22:00:00 21 7 Este 21 Este 0 1016.9 0.2 70
2019-08-22 21:00:00 22.1 12 Este 35 Este 0 1016.4 -0.5 63
2019-08-22 20:00:00 24.1 14 Este 30 Este 0 1016.5 -0.7 50
2019-08-22 19:00:00 24.7 13 Este 35 Este 0 1016.7 -0.7 52
2019-08-22 18:00:00 25.5 16 Este 32 Este 0 1016.9 -0.9 48
2019-08-22 17:00:00 26.3 12 Este 32 Este 0 1017.2 -1.2 47
2019-08-22 16:00:00 25.9 16 Este 35 Este 0 1017.4 -1.6 47
2019-08-22 15:00:00 26.3 13 Este 31 Este 0 1017.8 -1.5 44
2019-08-22 14:00:00 25.8 15 Nordeste 32 Este 0 1018.4 -1.1 56
2019-08-22 13:00:00 25 13 Este 31 Sudeste 0 1019 -0.7 47
2019-08-22 12:00:00 23.9 14 Este 29 Sudeste 0 1019.3 -0.4 58
2019-08-22 11:00:00 22.5 13 Este 24 Este 0 1019.5 0.1 67
2019-08-22 10:00:00 19.6 5 Este 13 Sudeste 0 1019.7 0.6 84
2019-08-22 09:00:00 14.8 0 Calma 3 Sudeste 0 1019.7 0.8 98
2019-08-22 08:00:00 12.4 0 Calma 8 Sudeste 0 1019.4 0.5 98
2019-08-22 07:00:00 12.6 3 Sudeste 5 Sudeste 0 1019.1 0.2 97
2019-08-22 06:00:00 13.2 3 Sudeste 8 Sudeste 0 1018.9 -0.1 96
2019-08-22 05:00:00 13.9 5 Sudeste 8 Sudeste 0 1018.9 -0.8 97
2019-08-22 04:00:00 14.4 4 Sur 6 Sudeste 0 1018.9 -1 95
2019-08-22 03:00:00 15.4 2 Este 5 Sudeste 0 1019 -1.1 94
2019-08-22 02:00:00 16.3 3 Sudeste 6 Este 0 1019.7 -0.5 92
2019-08-22 01:00:00 17.7 4 Este 9 Este 0 1019.9 -0.1 88
2019-08-22 00:00:00 18.1 4 Este 11 Este 0 1020.1 0.8 87
2019-08-21 23:00:00 18.3 0 Calma 9 Este 0 1020.2 1.3 86
2019-08-21 22:00:00 19.8 6 Este 18 Este 0 1020 1.3 79
2019-08-21 21:00:00 21.1 9 Este 21 Sudeste 0 1019.3 0.6 72
2019-08-21 20:00:00 22.5 8 Nordeste 21 Nordeste 0 1018.9 0.2 67
2019-08-21 19:00:00 23.4 12 Este 24 Este 0 1018.7 0.1 62
2019-08-21 18:00:00 23.7 10 Nordeste 30 Nordeste 0 1018.7 -0.1 61
2019-08-21 17:00:00 24 17 Nordeste 36 Norte 0 1018.7 -0.1 60
2019-08-21 16:00:00 24.4 14 Nordeste 33 Nordeste 0 1018.6 -0.3 61
2019-08-21 15:00:00 24.2 11 Nordeste 36 Nordeste 0 1018.8 -0.5 59
2019-08-21 14:00:00 23.8 13 Nordeste 36 Norte 0 1018.8 -0.4 63
2019-08-21 13:00:00 23.3 12 Este 31 Nordeste 0 1018.9 -0.2 60
2019-08-21 12:00:00 22.7 15 Este 29 Sudeste 0 1019.3 0.2 60
2019-08-21 11:00:00 21.6 11 Este 26 Sudeste 0 1019.2 0.3 65
2019-08-21 10:00:00 19.9 9 Este 17 Este 0 1019.1 0.2 69
2019-08-21 09:00:00 14.7 0 Calma 6 Sudeste 0 1019.1 0.3 91
2019-08-21 08:00:00 14 2 Sur 5 Este 0 1018.9 -0.5 91
2019-08-21 07:00:00 15.3 0 Calma 12 Este 0 1018.9 -0.7 85
2019-08-21 06:00:00 16.2 3 Este 12 Este 0 1018.8 -1.3 81
2019-08-21 05:00:00 16.8 4 Este 10 Este 0 1019.4 -1.1 80
2019-08-21 04:00:00 16.9 5 Este 12 Este 0 1019.6 -1.1 78
2019-08-21 03:00:00 16.9 5 Este 11 Sudeste 0 1020.1 -0.8 76
2019-08-21 02:00:00 17.7 6 Este 19 Sudeste 0 1020.5 -0.5 73
2019-08-21 01:00:00 18.1 10 Este 26 Sudeste 0 1020.7 0 72
2019-08-21 00:00:00 18.4 9 Este 24 Este 0 1020.9 0.5 73
2019-08-20 23:00:00 18.6 7 Este 20 Este 0 1021 0.8 73
2019-08-20 22:00:00 19 9 Este 25 Este 0 1020.7 0.5 71
2019-08-20 21:00:00 20.1 12 Este 35 Este 0 1020.4 0.4 65
2019-08-20 20:00:00 21.2 14 Este 34 Este 0 1020.2 -0.2 60
2019-08-20 19:00:00 21.8 19 Este 37 Este 0 1020.2 -0.8 56
2019-08-20 18:00:00 22.5 15 Este 36 Nordeste 0 1020 -1.2 56
2019-08-20 17:00:00 22.6 18 Este 33 Nordeste 0 1020.4 -1 57
2019-08-20 16:00:00 22.6 16 Nordeste 31 Este 0 1021 -0.4 56
2019-08-20 15:00:00 21.8 12 Este 27 Nordeste 0 1021.2 -0.5 62
2019-08-20 14:00:00 21.8 11 Nordeste 26 Nordeste 0 1021.4 0.1 62
2019-08-20 13:00:00 22.4 10 Nordeste 31 Nordeste 0 1021.4 0.3 59
2019-08-20 12:00:00 21.1 9 Este 26 Este 0 1021.7 1.1 63
2019-08-20 11:00:00 19.7 8 Nordeste 19 Nordeste 0 1021.3 1.2 71
2019-08-20 10:00:00 17.6 4 Sudoeste 8 Sudeste 0 1021.1 1.9 89
2019-08-20 09:00:00 16.2 2 Sudeste 5 Sudoeste 0 1020.6 1.4 95
2019-08-20 08:00:00 15.6 3 Sudeste 5 Sur 0.2 1020.1 1.1 96
2019-08-20 07:00:00 16 3 Sudeste 4 Sudeste 0 1019.2 0.2 94
2019-08-20 06:00:00 16.1 0 Calma 5 Norte 0 1019.2 0.1 93
2019-08-20 05:00:00 16 3 Sur 8 Sur 0 1019 -0.4 92
2019-08-20 04:00:00 16.5 4 Sur 14 Norte 0.6 1019 -0.3 91
2019-08-20 03:00:00 17.1 3 Sur 7 Oeste 0 1019.1 -0.3 83
2019-08-20 02:00:00 17.2 0 Calma 3 Sudeste 0 1019.4 0.2 83
2019-08-20 01:00:00 17.7 2 Sudeste 4 Sudeste 0 1019.3 0.6 78
2019-08-20 00:00:00 18 3 Sudeste 9 Este 0 1019.4 0.9 75
2019-08-19 23:00:00 18.6 3 Sudeste 13 Este 0 1019.2 0.9 70
2019-08-19 22:00:00 18.9 5 Nordeste 14 Este 0 1018.7 0.5 66
2019-08-19 21:00:00 19.1 8 Este 15 Este 0 1018.5 0.4 65
2019-08-19 20:00:00 19.4 7 Este 21 Este 0 1018.3 0.4 65
2019-08-19 19:00:00 20 10 Este 22 Nordeste 0 1018.2 0.3 60
2019-08-19 18:00:00 20.5 8 Este 22 Este 0 1018.1 0.1 65
2019-08-19 17:00:00 21.2 9 Nordeste 22 Nordeste 0 1017.9 -0.3 63
2019-08-19 16:00:00 22.2 13 Nordeste 26 Norte 0 1017.9 -0.2 57
2019-08-19 15:00:00 22.5 13 Nordeste 27 Norte 0 1018 0.2 52
2019-08-19 14:00:00 21 7 Nordeste 22 Nordeste 0 1018.2 0.5 57
2019-08-19 13:00:00 20.7 8 Norte 18 Norte 0 1018.1 0.6 62
2019-08-19 12:00:00 20.2 8 Nordeste 14 Nordeste 0 1017.8 0.4 66
2019-08-19 11:00:00 18.1 0 Calma 8 Nordeste 0 1017.7 0.4 76
2019-08-19 10:00:00 16.3 0 Calma 4 Sur 0 1017.5 0.7 90
2019-08-19 09:00:00 15.7 2 Sudeste 4 Sudeste 0 1017.4 0.9 93
2019-08-19 08:00:00 15.2 3 Sudeste 5 Este 0 1017.3 0.3 93
2019-08-19 07:00:00 15.4 3 Este 5 Este 0 1016.8 -0.2 92
2019-08-19 06:00:00 15.8 4 Noroeste 8 Noroeste 0 1016.5 -0.6 85
2019-08-19 05:00:00 16 0 Calma 3 Oeste 0 1017 -0.4 87
2019-08-19 04:00:00 16.3 0 Calma 4 Oeste 0 1017 -0.5 84
2019-08-19 03:00:00 16.5 0 Calma 3 Sudoeste 0 1017.1 -0.3 83
2019-08-19 02:00:00 16.8 2 Oeste 5 Sudoeste 0 1017.4 0.3 80
2019-08-19 01:00:00 17 0 Calma 5 Sur 0 1017.5 1.2 81
2019-08-19 00:00:00 16.9 3 Sur 9 Sur 0 1017.4 1.5 81
2019-08-18 23:00:00 16.9 3 Sur 6 Sudoeste 0 1017.1 1.7 83
2019-08-18 22:00:00 17.2 2 Sur 7 Sur 0 1016.3 0.9 80
2019-08-18 21:00:00 17.7 2 Sur 12 Sur 0 1015.9 1.1 77
2019-08-18 20:00:00 18.1 4 Sur 9 Sur 0 1015.4 0.8 75
2019-08-18 19:00:00 18.4 3 Sudeste 14 Oeste 0 1015.4 1.2 74
2019-08-18 18:00:00 19.1 5 Oeste 23 Norte 0 1014.8 0.8 67
2019-08-18 17:00:00 19.2 9 Norte 19 Norte 0 1014.6 0.8 68
2019-08-18 16:00:00 19.4 9 Noroeste 15 Noroeste 0 1014.2 0.8 67
2019-08-18 15:00:00 18.4 8 Oeste 17 Noroeste 0 1014 1.1 80
2019-08-18 14:00:00 17.7 10 Noroeste 18 Noroeste 3.4 1013.8 1.6 93
2019-08-18 13:00:00 17.6 4 Noroeste 13 Oeste 2.6 1013.4 2 95
2019-08-18 12:00:00 17.7 6 Oeste 10 Oeste 1.2 1012.9 2.8 93
2019-08-18 11:00:00 17.5 8 Noroeste 21 Noroeste 0.6 1012.2 3.3 90
2019-08-18 10:00:00 17.8 12 Noroeste 31 Noroeste 2.4 1011.4 3.7 95
2019-08-18 09:00:00 19.3 6 Oeste 16 Sudoeste 1 1010.1 3.2 95
2019-08-18 08:00:00 19.2 4 Oeste 15 Noroeste 0.8 1008.9 1.9 94
2019-08-18 07:00:00 18.2 6 Noroeste 15 Noroeste 0 1007.7 0.4 93
2019-08-18 06:00:00 17.6 3 Norte 5 Sudeste 0 1006.9 -0.7 94
2019-08-18 05:00:00 17.6 3 Sur 8 Sudeste 0 1007 -1.1 93
2019-08-18 04:00:00 17.9 6 Sudeste 8 Sudeste 0 1007.3 -0.2 92
2019-08-18 03:00:00 18.2 5 Sudeste 8 Sudeste 0 1007.6 0.2 92
2019-08-18 02:00:00 18.2 6 Este 9 Sudeste 0 1008.1 0 90
2019-08-18 01:00:00 18.9 4 Sudeste 7 Sudeste 0 1007.5 -0.8 88
2019-08-18 00:00:00 19.8 6 Sudeste 8 Sudeste 0 1007.4 -0.9 85
2019-08-17 23:00:00 21.4 2 Sudeste 6 Sudeste 0 1008.1 -0.5 79
2019-08-17 22:00:00 23.4 4 Sudeste 8 Este 0 1008.3 -0.8 70
2019-08-17 21:00:00 26.1 5 Este 17 Sudeste 0 1008.3 -1.2 58
2019-08-17 20:00:00 27 8 Sudeste 13 Sudeste 0 1008.6 -1.1 56
2019-08-17 19:00:00 27.1 8 Norte 16 Norte 0 1009.1 -1 56
2019-08-17 18:00:00 27 8 Nordeste 21 Norte 0 1009.5 -1.1 54
2019-08-17 17:00:00 27 11 Norte 21 Nordeste 0 1009.7 -1.1 56
2019-08-17 16:00:00 27.3 10 Nordeste 23 Norte 0 1010.1 -0.9 53
2019-08-17 15:00:00 27.4 9 Nordeste 24 Nordeste 0 1010.6 -0.7 51
2019-08-17 14:00:00 27.9 14 Norte 27 Nordeste 0 1010.8 -1 52
2019-08-17 13:00:00 28.4 12 Norte 19 Norte 0 1011 -1 51
2019-08-17 12:00:00 27.2 6 Noroeste 11 Noroeste 0 1011.3 -0.7 50
2019-08-17 11:00:00 25.1 4 Noroeste 7 Oeste 0 1011.8 -0.2 62
2019-08-17 10:00:00 21.5 4 Norte 7 Norte 0 1012 -0.3 78
2019-08-17 09:00:00 17.2 4 Sur 6 Sur 0 1012 0.3 94
2019-08-17 08:00:00 14.7 5 Sudeste 8 Sudeste 0 1012 -0.1 98
2019-08-17 07:00:00 14.7 3 Este 7 Sudeste 0 1012.3 -0.1 97
2019-08-17 06:00:00 14.7 4 Sudeste 9 Sudeste 0 1011.7 -0.9 97
2019-08-17 05:00:00 14.9 0 Calma 9 Sudeste 0 1012.1 -1.2 96
2019-08-17 04:00:00 15.1 5 Sudeste 8 Sudeste 0 1012.4 -1.4 95
2019-08-17 03:00:00 15.5 3 Sudeste 5 Sudeste 0 1012.6 -1.5 95
2019-08-17 02:00:00 16 4 Sudeste 6 Este 0 1013.3 -0.8 93
2019-08-17 01:00:00 16.7 2 Este 8 Sudeste 0 1013.8 -0.2 92
2019-08-17 00:00:00 17.1 2 Sudeste 6 Sudoeste 0 1014.1 0.1 90
2019-08-16 23:00:00 17.9 3 Sudeste 8 Sudeste 0 1014.1 0.1 86
2019-08-16 22:00:00 19.3 2 Sudeste 6 Sudeste 0 1014 0 82
2019-08-16 21:00:00 21.2 3 Sudeste 10 Noroeste 0 1014 -0.1 72
2019-08-16 20:00:00 20.7 8 Noroeste 21 Norte 0 1014 -0.6 74
2019-08-16 19:00:00 21.4 13 Norte 21 Noroeste 0 1014 -0.4 73
2019-08-16 18:00:00 22.1 17 Noroeste 27 Noroeste 0 1014.1 -0.2 69
2019-08-16 17:00:00 22.3 19 Norte 31 Noroeste 0 1014.6 0 67
2019-08-16 16:00:00 22.8 18 Noroeste 26 Norte 0 1014.4 -0.4 70
2019-08-16 15:00:00 23.3 14 Noroeste 22 Norte 0 1014.3 -0.6 63
2019-08-16 14:00:00 23 13 Norte 21 Noroeste 0 1014.6 -0.7 62
2019-08-16 13:00:00 23 12 Norte 19 Norte 0 1014.8 -0.7 66
2019-08-16 12:00:00 23.5 5 Noroeste 12 Noroeste 0 1014.9 -0.7 61
2019-08-16 11:00:00 21.2 6 Noroeste 13 Oeste 0 1015.3 -0.4 67
2019-08-16 10:00:00 18.5 2 Este 5 Sudeste 0 1015.5 -0.1 81
2019-08-16 09:00:00 14.6 0 Calma 5 Sudeste 0 1015.6 -0.1 96
2019-08-16 08:00:00 11.8 5 Sudeste 8 Sudeste 0 1015.7 -0.6 97
2019-08-16 07:00:00 11.7 3 Sudeste 5 Sudeste 0 1015.6 -1.1 97
2019-08-16 06:00:00 12.1 2 Sudeste 7 Este 0 1015.7 -1.4 96
2019-08-16 05:00:00 12.5 3 Sudeste 5 Sudeste 0 1016.3 -0.9 95
2019-08-16 04:00:00 13.1 3 Sudeste 6 Sudeste 0 1016.7 -1.3 94
2019-08-16 03:00:00 13.7 4 Sudeste 6 Sudeste 0 1017.1 -1 93
2019-08-16 02:00:00 14.3 4 Sudeste 7 Sudeste 0 1017.2 -1.6 91
2019-08-16 01:00:00 15.1 4 Sudeste 7 Sudeste 0 1018 -1.4 90
2019-08-16 00:00:00 16.7 5 Este 8 Sudeste 0 1018.1 -0.7 82
2019-08-15 23:00:00 17.3 3 Este 7 Este 0 1018.8 0.3 80
2019-08-15 22:00:00 18.7 3 Sudeste 17 Este 0 1019.4 0.6 73
2019-08-15 21:00:00 20.3 8 Este 20 Norte 0 1018.8 -0.7 64
2019-08-15 20:00:00 21.9 10 Nordeste 25 Norte 0 1018.5 -1.1 58
2019-08-15 19:00:00 22.8 12 Nordeste 23 Nordeste 0 1018.8 -1.3 53
2019-08-15 18:00:00 22.9 11 Nordeste 27 Nordeste 0 1019.5 -0.6 54
2019-08-15 17:00:00 23.1 10 Nordeste 26 Norte 0 1019.6 -0.6 54
2019-08-15 16:00:00 22.4 9 Nordeste 24 Norte 0 1020.1 -0.3 56
2019-08-15 15:00:00 23 9 Nordeste 23 Norte 0 1020.1 -0.1 55
2019-08-15 14:00:00 21.8 10 Norte 17 Norte 0 1020.2 0.1 62
2019-08-15 13:00:00 20.9 12 Norte 18 Norte 0 1020.4 0.2 62
2019-08-15 12:00:00 21 7 Noroeste 15 Noroeste 0 1020.2 0.1 60
2019-08-15 11:00:00 19.9 4 Sur 8 Sur 0 1020.1 0.3 71
2019-08-15 10:00:00 18.9 3 Sur 9 Sur 0 1020.2 0.8 76
2019-08-15 09:00:00 18.1 4 Sudoeste 9 Sudoeste 0 1020.1 0.8 82
2019-08-15 08:00:00 17.7 4 Sur 9 Sur 0 1019.8 0.5 85
2019-08-15 07:00:00 17.8 3 Sur 8 Sudeste 0 1019.4 0 86
2019-08-15 06:00:00 18.1 4 Sudoeste 13 Oeste 0 1019.3 -0.1 84
2019-08-15 05:00:00 18 4 Oeste 11 Oeste 0 1019.3 0.2 85
2019-08-15 04:00:00 17.9 6 Noroeste 16 Oeste 0 1019.4 0.3 87
2019-08-15 03:00:00 18.2 8 Noroeste 20 Noroeste 0 1019.4 0.4 88
2019-08-15 02:00:00 18.8 9 Noroeste 15 Noroeste 0 1019.1 0.4 88
2019-08-15 01:00:00 19 6 Noroeste 18 Noroeste 0 1019.1 1 90
2019-08-15 00:00:00 19.2 11 Noroeste 23 Noroeste 0 1019 1.4 92
2019-08-14 23:00:00 19.8 14 Noroeste 22 Noroeste 0 1018.7 1.3 91
2019-08-14 22:00:00 20.9 11 Oeste 22 Oeste 0 1018.1 0.9 84
2019-08-14 21:00:00 21.3 11 Oeste 23 Noroeste 0 1017.6 0.3 82
2019-08-14 20:00:00 21.6 10 Noroeste 23 Noroeste 0 1017.4 0 80
2019-08-14 19:00:00 22.2 13 Norte 20 Norte 0 1017.2 -0.1 76
2019-08-14 18:00:00 23.3 10 Noroeste 21 Norte 0 1017.3 0 70
2019-08-14 17:00:00 23.8 10 Norte 22 Norte 0 1017.4 0.5 63
2019-08-14 16:00:00 23.2 14 Noroeste 23 Norte 0 1017.3 0.2 60
2019-08-14 15:00:00 24.5 16 Norte 26 Noroeste 0 1017.3 0.2 52
2019-08-14 14:00:00 25.4 13 Norte 24 Noroeste 0 1016.9 0 46
2019-08-14 13:00:00 24.7 9 Norte 15 Noroeste 0 1017.1 0.3 47
2019-08-14 12:00:00 24 6 Oeste 14 Noroeste 0 1017.1 0.4 51
2019-08-14 11:00:00 22.5 3 Norte 6 Norte 0 1016.9 0 62
2019-08-14 10:00:00 19.4 4 Noroeste 7 Oeste 0 1016.8 0 73
2019-08-14 09:00:00 15.8 0 Calma 4 Nordeste 0 1016.7 -0.1 88
2019-08-14 08:00:00 13 3 Noroeste 7 Sudeste 0 1016.9 0.4 97
2019-08-14 07:00:00 12.7 5 Sudeste 8 Sudeste 0 1016.8 0.2 95
2019-08-14 06:00:00 13 3 Nordeste 8 Sudeste 0 1016.8 -0.4 95
2019-08-14 05:00:00 13.1 2 Sudeste 7 Norte 0 1016.5 -1 93
2019-08-14 04:00:00 12.9 4 Sudeste 8 Sudeste 0 1016.6 -1.6 94
2019-08-14 03:00:00 13.2 3 Nordeste 6 Este 0 1017.2 -1.3 92
2019-08-14 02:00:00 13.6 6 Sudeste 8 Sudeste 0 1017.5 -1.1 91
2019-08-14 01:00:00 14.6 2 Sudeste 8 Sudeste 0 1018.2 -0.1 87
2019-08-14 00:00:00 15.3 5 Sudeste 7 Sudeste 0 1018.5 0.2 86
2019-08-13 23:00:00 17.2 -- -- 13 Este 0 1018.6 0.5 77
2019-08-13 22:00:00 18.5 8 Este 14 Este 0 1018.3 0.5 70
2019-08-13 21:00:00 20.1 9 Este 25 Este 0 1018.3 0.3 64
2019-08-13 20:00:00 21.1 13 Este 24 Este 0 1018.1 -0.3 59
2019-08-13 19:00:00 22 12 Nordeste 27 Nordeste 0 1017.8 -1.1 57
2019-08-13 18:00:00 22.3 11 Nordeste 30 Nordeste 0 1018 -1.6 57
2019-08-13 17:00:00 23.9 11 Nordeste 26 Nordeste 0 1018.4 -- 51
2019-08-13 16:00:00 22.4 13 Nordeste 34 Nordeste 0 1018.9 -1 55
2019-08-13 15:00:00 22.4 13 Nordeste -- -- -- 1019.6 -0.3 56
2019-08-13 14:00:00 -- -- -- -- -- -- -- -- --
2019-08-13 13:00:00 21.9 10 Nordeste 26 Norte 0 1019.9 -0.6 63
2019-08-13 12:00:00 21.5 9 Nordeste 17 Nordeste 0 1019.9 -0.5 64
2019-08-13 11:00:00 19.4 6 Norte 10 Norte 0 1020.1 -0.1 70
2019-08-13 10:00:00 16.9 0 Calma 4 Nordeste 0 1020.5 0.3 82
2019-08-13 09:00:00 13.1 0 Calma 4 Sudeste 0 1020.4 0.6 99
2019-08-13 08:00:00 10.1 3 Sudeste 6 Este 0 1020.2 -0.1 99
2019-08-13 07:00:00 10.1 2 Este 4 Sudeste 0 1020.2 -0.2 98
2019-08-13 06:00:00 10.4 2 Sudeste 7 Sudeste 0 1019.8 -1.3 98
2019-08-13 05:00:00 10.7 5 Sudeste 6 Sudeste 0 1020.3 -1.3 98
2019-08-13 04:00:00 11.2 4 Sudeste 5 Sudeste 0 1020.4 -1.5 97
2019-08-13 03:00:00 11.8 5 Sudeste 6 Sudeste 0 1021.1 -1.1 96
2019-08-13 02:00:00 12.5 4 Sudeste 7 Sudeste 0 1021.6 -0.8 95
2019-08-13 01:00:00 13.5 4 Sudeste 6 Este 0 1021.9 0 93
2019-08-13 00:00:00 15.2 4 Sudeste 7 Este 0 1022.2 0.9 88
2019-08-12 23:00:00 16.4 4 Sudeste 6 Sudeste 0 1022.4 1.6 85
2019-08-12 22:00:00 17.7 2 Nordeste 10 Norte 0 1021.9 1.3 74
2019-08-12 21:00:00 18.6 6 Norte 13 Norte 0 1021.3 0.5 69
2019-08-12 20:00:00 19 7 Norte 15 Norte 0 1020.8 -0.1 67
2019-08-12 19:00:00 19.4 8 Norte 20 Norte 0 1020.6 -0.7 65
2019-08-12 18:00:00 20.1 11 Norte 23 Norte 0 1020.8 -0.8 60
2019-08-12 17:00:00 20.1 14 Norte 27 Norte 0 1020.9 -0.7 61
2019-08-12 16:00:00 20 15 Norte 24 Norte 0 1021.3 -0.6 63
2019-08-12 15:00:00 19.1 12 Noroeste 21 Norte 0 1021.6 0 65
2019-08-12 14:00:00 18.7 4 Sur 11 Sur 0.2 1021.6 0.8 73
2019-08-12 13:00:00 15.9 5 Sur 12 Sudeste 1.2 1021.9 1.5 89
2019-08-12 12:00:00 15.9 4 Sur 20 Oeste 0.8 1021.6 1.9 86
2019-08-12 11:00:00 18.5 10 Sudoeste 20 Sudoeste 0 1020.8 1.7 63
2019-08-12 10:00:00 17.4 7 Sudoeste 19 Sudoeste 0 1020.4 1.6 67
2019-08-12 09:00:00 16.1 8 Sudoeste 18 Sudoeste 0 1019.7 1.2 72
2019-08-12 08:00:00 15.1 6 Sudoeste 15 Sudoeste 0 1019.1 0.7 74
2019-08-12 07:00:00 15.1 5 Sudoeste 12 Sur 0 1018.8 0.1 75
2019-08-12 06:00:00 14.6 5 Sudoeste 13 Sudoeste 0 1018.5 -0.4 80
2019-08-12 05:00:00 12.5 4 Sur 7 Sur 0 1018.4 -0.6 95
2019-08-12 04:00:00 12.9 0 Calma 6 Norte 0 1018.7 -0.2 94
2019-08-12 03:00:00 13.1 3 Sur 9 Norte 0 1018.9 0.2 94
2019-08-12 02:00:00 14.1 3 Sur 5 Sur 0 1019 0.4 89
2019-08-12 01:00:00 14.6 3 Oeste 9 Sur 0 1018.9 0.9 88
2019-08-12 00:00:00 14.5 3 Este 6 Sudeste 0 1018.7 1.2 94
2019-08-11 23:00:00 14.7 5 Sudeste 8 Sudeste 0 1018.6 1.3 91
2019-08-11 22:00:00 16.2 4 Sur 7 Sur 0 1018 0.9 84
2019-08-11 21:00:00 18.7 4 Sudoeste 12 Sudoeste 0 1017.5 0.1 73
2019-08-11 20:00:00 18.4 6 Sur 15 Sudoeste 0 1017.3 0.7 71
2019-08-11 19:00:00 18.1 7 Sudoeste 14 Sur 0.2 1017.1 0.8 80
2019-08-11 18:00:00 15.7 8 Sur 35 Noroeste 1.6 1017.4 1.3 88
2019-08-11 17:00:00 19.9 17 Noroeste 32 Norte 0 1016.6 0.5 68
2019-08-11 16:00:00 21.6 19 Norte 30 Norte 0 1016.3 -0.1 60
2019-08-11 15:00:00 21.3 16 Norte 29 Norte 0 1016.1 -0.3 66
2019-08-11 14:00:00 21.5 20 Noroeste 30 Norte 0 1016.1 0 59
2019-08-11 13:00:00 21.3 14 Norte 25 Nordeste 0 1016.4 0.8 63
2019-08-11 12:00:00 19.1 13 Norte 24 Noroeste 0 1016.4 0.9 75
2019-08-11 11:00:00 19.4 5 Sudoeste 15 Oeste 0 1016.1 0.9 72
2019-08-11 10:00:00 19.1 6 Sudoeste 13 Sudoeste 0 1015.6 0.4 70
2019-08-11 09:00:00 17.5 3 Sudoeste 7 Sudoeste 0 1015.5 0.3 79
2019-08-11 08:00:00 16.7 4 Sur 7 Sudoeste 0 1015.2 -0.5 83
2019-08-11 07:00:00 16.8 4 Oeste 8 Sudoeste 0 1015.2 -0.9 83
2019-08-11 06:00:00 16.7 3 Oeste 8 Sur 0 1015.2 -1.3 85
2019-08-11 05:00:00 16.9 4 Sur 8 Sur 0 1015.7 -1.2 85
2019-08-11 04:00:00 17.6 4 Noroeste 12 Noroeste 0 1016.1 -1 79
2019-08-11 03:00:00 17.9 4 Sur 12 Sur 0 1016.5 -1 81
2019-08-11 02:00:00 18.5 5 Sur 10 Sudoeste 0 1016.9 -0.9 81
2019-08-11 01:00:00 18.7 3 Sudeste 5 Sur 0 1017.1 -0.4 82
2019-08-11 00:00:00 19.2 4 Sudeste 6 Este 0 1017.5 -0.1 80
2019-08-10 23:00:00 19.9 4 Norte 7 Noroeste 0 1017.8 0.2 74
2019-08-10 22:00:00 20 5 Norte 12 Norte 0 1017.5 0.1 72
2019-08-10 21:00:00 20.4 8 Norte 14 Norte 0 1017.6 0.4 70
2019-08-10 20:00:00 20.9 6 Nordeste 17 Norte 0 1017.6 0.5 68
2019-08-10 19:00:00 21 12 Norte 18 Norte 0 1017.4 0.5 69
2019-08-10 18:00:00 22 11 Norte 21 Nordeste 0 1017.2 0 63
2019-08-10 17:00:00 23.6 10 Nordeste 24 Norte 0 1017.1 -0.1 59
2019-08-10 16:00:00 24.1 11 Nordeste 23 Norte 0 1016.9 -0.3 56
2019-08-10 15:00:00 23.3 15 Norte 26 Norte 0 1017.2 -0.1 59
2019-08-10 14:00:00 22.5 19 Norte 28 Norte 0 1017.2 0.2 64
2019-08-10 13:00:00 22.6 18 Noroeste 28 Noroeste 0 1017.2 0.4 63
2019-08-10 12:00:00 22.6 18 Norte 24 Norte 0 1017.3 0.8 60
2019-08-10 11:00:00 22 15 Norte 24 Norte 0 1017 1.1 58
2019-08-10 10:00:00 21.6 2 Nordeste 5 Sudeste 0 1016.8 1.8 59
2019-08-10 09:00:00 17.4 5 Sudeste 6 Sudeste 0 1016.5 1.7 83
2019-08-10 08:00:00 14 3 Este 6 Este 0 1015.9 1.3 94
2019-08-10 07:00:00 14.6 3 Sudeste 7 Sudeste 0 1015 0.9 94
2019-08-10 06:00:00 15.6 5 Sudeste 8 Sudeste 0 1014.8 0.8 92
2019-08-10 05:00:00 16.1 2 Sudoeste 9 Sudeste 0 1014.6 0.7 91
2019-08-10 04:00:00 16.5 5 Sudeste 11 Sudeste 0 1014.1 0.5 92
2019-08-10 03:00:00 17 4 Sudeste 6 Sur 0 1014 0.7 94
2019-08-10 02:00:00 18 4 Sur 10 Sudeste 0 1013.9 0.9 92
2019-08-10 01:00:00 18.3 4 Sudeste 8 Sur 0 1013.6 1.6 92
2019-08-10 00:00:00 19.8 2 Sur 8 Este 0 1013.3 2.3 91
2019-08-09 23:00:00 20.6 4 Sudeste 10 Sudeste 0 1013 3 89
2019-08-09 22:00:00 21.4 4 Sudeste 18 Norte 0 1012 2.3 84
2019-08-09 21:00:00 23 5 Nordeste 13 Norte 0 1011 1.9 72
2019-08-09 20:00:00 23.8 3 Noroeste 13 Sudeste 0 1010 1.7 66
2019-08-09 19:00:00 23.7 4 Sudeste 10 Sudeste 0 1009.7 1.6 68
2019-08-09 18:00:00 24.7 4 Nordeste 21 Norte 0 1009.1 1.4 63
2019-08-09 17:00:00 25.8 13 Norte 19 Norte 0 1008.3 0.9 53
2019-08-09 16:00:00 25.7 5 Este 12 Sudeste 0 1008.1 0.9 58
2019-08-09 15:00:00 25.2 3 Este 11 Este 0 1007.7 0.8 66
2019-08-09 14:00:00 24.1 6 Este 12 Este 0 1007.4 1.2 73
2019-08-09 13:00:00 23.6 3 Nordeste 7 Nordeste 0 1007.2 1.4 75
2019-08-09 12:00:00 23.1 3 Norte 7 Norte 0 1006.9 1.8 77
2019-08-09 11:00:00 22.7 4 Sudeste 7 Sudeste 0 1006.2 1.7 83
2019-08-09 10:00:00 22.1 4 Norte 10 Noroeste 0 1005.8 2 89
2019-08-09 09:00:00 22.6 2 Nordeste 8 Este 0 1005.1 1.3 86
2019-08-09 08:00:00 21 2 Nordeste 14 Noroeste 0 1004.5 0.6 92
2019-08-09 07:00:00 21.1 5 Este 12 Sudeste 0 1003.8 0.1 92
2019-08-09 06:00:00 21.4 4 Nordeste 9 Norte 0 1003.8 0.3 90
2019-08-09 05:00:00 21.2 2 Nordeste 5 Sudeste 0 1003.9 1.1 94
2019-08-09 04:00:00 21.1 4 Nordeste 22 Noroeste 0 1003.7 1.3 94
2019-08-09 03:00:00 22.3 7 Noroeste 22 Noroeste 0 1003.5 0.6 94
2019-08-09 02:00:00 22.5 4 Sudeste 13 Noroeste 0 1002.8 -0.1 89
2019-08-09 01:00:00 22.3 4 Sudeste 7 Sudeste 0 1002.4 0 92
2019-08-09 00:00:00 22.3 4 Sudeste 9 Sudeste 0 1002.9 0.6 91
2019-08-08 23:00:00 23.3 0 Calma 10 Noroeste 0 1002.9 1.1 87
2019-08-08 22:00:00 24.4 6 Norte 10 Noroeste 0 1002.4 0.5 81
2019-08-08 21:00:00 25.2 0 Calma 9 Norte 0 1002.3 -0.1 77
2019-08-08 20:00:00 25.1 5 Norte 19 Noroeste 0 1001.8 -0.9 75
2019-08-08 19:00:00 27.6 14 Noroeste 17 Noroeste 0 1001.9 -1.3 66
2019-08-08 18:00:00 28.3 5 Norte 13 Norte 0 1002.4 -1.8 67
2019-08-08 17:00:00 30.4 10 Norte 23 Norte 0 1002.7 -1.9 57
2019-08-08 16:00:00 32.3 9 Nordeste 22 Este 0 1003.2 -1.7 48
2019-08-08 15:00:00 29.7 10 Norte 24 Nordeste 0 1004.2 -1.2 51
2019-08-08 14:00:00 30.4 10 Nordeste 19 Norte 0 1004.6 -1.1 51
2019-08-08 13:00:00 29.4 12 Norte 17 Norte 0 1004.9 -0.9 52
2019-08-08 12:00:00 28.3 5 Norte 9 Nordeste 0 1005.4 -0.3 61
2019-08-08 11:00:00 26.1 3 Norte 6 Norte 0 1005.7 0 65
2019-08-08 10:00:00 23.7 0 Calma 5 Oeste 0 1005.8 0.1 76
2019-08-08 09:00:00 21.5 0 Calma 4 Sudeste 0 1005.7 -0.3 88
2019-08-08 08:00:00 19.5 3 Sudeste 6 Sudeste 0 1005.7 -0.6 97
2019-08-08 07:00:00 19.8 4 Sudeste 6 Sudeste 0 1005.7 -1 97
2019-08-08 06:00:00 19.9 0 Calma 4 Sudeste 0 1006 -0.9 96
2019-08-08 05:00:00 20 2 Sudeste 5 Sudeste 0 1006.3 -1.3 96
2019-08-08 04:00:00 20.1 2 Sur 7 Oeste 0 1006.7 -0.8 96
2019-08-08 03:00:00 20 4 Nordeste 7 Norte 0 1006.9 -0.6 97
2019-08-08 02:00:00 20 0 Calma 6 Sudeste 0 1007.6 -0.3 96
2019-08-08 01:00:00 20.2 3 Sudeste 7 Este 0 1007.5 -0.4 94
2019-08-08 00:00:00 21.3 4 Este 13 Nordeste 0 1007.5 0 89
2019-08-07 23:00:00 21.6 3 Este 5 Norte 0 1007.9 -0.2 90
2019-08-07 22:00:00 22.2 3 Nordeste 13 Nordeste 0 1007.9 -0.1 86
2019-08-07 21:00:00 22.8 6 Este 11 Este 0 1007.5 -0.4 88
2019-08-07 20:00:00 22.9 4 Oeste 11 Sur 0.2 1008.1 0.4 87
2019-08-07 19:00:00 23.9 4 Norte 13 Nordeste 0 1008 0.1 83
2019-08-07 18:00:00 25 11 Norte 17 Norte 0 1007.9 -0.1 76
2019-08-07 17:00:00 26.3 8 Este 16 Este 0 1007.7 -0.3 56
2019-08-07 16:00:00 25.9 9 Este 17 Este 0 1007.9 -0.5 60
2019-08-07 15:00:00 26.9 8 Nordeste 20 Nordeste 0 1008 -0.7 65
2019-08-07 14:00:00 25.9 13 Nordeste 23 Norte 0 1008 -0.8 72
2019-08-07 13:00:00 26.2 11 Nordeste 20 Nordeste 0 1008.4 -0.7 67
2019-08-07 12:00:00 24.6 10 Norte 15 Norte 0 1008.7 -0.4 75
2019-08-07 11:00:00 23.2 5 Noroeste 10 Nordeste 0 1008.8 -0.4 81
2019-08-07 10:00:00 21.3 4 Noroeste 7 Noroeste 0 1009.1 0.3 90
2019-08-07 09:00:00 18.5 2 Norte 5 Este 0 1009.1 0.3 100
2019-08-07 08:00:00 16.2 4 Sudeste 5 Sudeste 0 1009.2 0.4 100
2019-08-07 07:00:00 16.4 4 Sudeste 6 Este 0 1008.8 0 99
2019-08-07 06:00:00 17.2 0 Calma 5 Sudeste 0 1008.8 -0.6 99
2019-08-07 05:00:00 18.1 0 Calma 5 Noroeste 0 1008.8 -0.5 98
2019-08-07 04:00:00 18.7 2 Sudoeste 5 Este 0 1008.8 -0.9 98
2019-08-07 03:00:00 18.8 2 Sudeste 4 Sudeste 0 1009.4 -0.5 99
2019-08-07 02:00:00 18.6 2 Sudeste 6 Sur 0 1009.3 -0.7 98
2019-08-07 01:00:00 19.1 0 Calma 6 Sur 0 1009.7 0.1 98
2019-08-07 00:00:00 19.5 3 Sudeste 7 Noroeste 0.2 1009.9 -0.3 98
2019-08-06 23:00:00 19.7 3 Sudeste 6 Sudeste 0 1010 -0.2 97
2019-08-06 22:00:00 19.9 4 Norte 6 Norte 0.2 1009.6 -1.3 97
2019-08-06 21:00:00 20.1 2 Noroeste 9 Sudeste 0 1010.2 -0.7 96
2019-08-06 20:00:00 19.7 7 Sur 16 Sudeste 2.6 1010.2 -0.5 96
2019-08-06 19:00:00 20.4 5 Nordeste 16 Noroeste 3.2 1010.9 0.6 90
2019-08-06 18:00:00 22.8 6 Noroeste 10 Noroeste 0 1010.9 0.4 70
2019-08-06 17:00:00 23 5 Noroeste 19 Noroeste 0 1010.7 0.2 70
2019-08-06 16:00:00 23.5 11 Norte 23 Norte 0 1010.3 -0.4 67
2019-08-06 15:00:00 23.7 14 Norte 26 Norte 0 1010.5 -0.2 66
2019-08-06 14:00:00 24.3 15 Norte 24 Norte 0 1010.5 0 65
2019-08-06 13:00:00 23.8 11 Noroeste 20 Noroeste 0 1010.7 0.2 69
2019-08-06 12:00:00 24.2 12 Noroeste 19 Noroeste 0 1010.7 -0.1 70
2019-08-06 11:00:00 22.3 5 Oeste 9 Norte 0 1010.5 -0.1 76
2019-08-06 10:00:00 21 0 Calma 6 Sur 0 1010.5 0 83
2019-08-06 09:00:00 17.9 2 Noroeste 6 Este 0 1010.8 0.2 97
2019-08-06 08:00:00 16.5 2 Sudeste 4 Sudeste 0 1010.6 -0.5 98
2019-08-06 07:00:00 16 4 Sudeste 7 Sudeste 0 1010.5 -0.9 98
2019-08-06 06:00:00 16.3 3 Sudeste 4 Sudeste 0 1010.6 -1 97
2019-08-06 05:00:00 16.6 5 Sudeste 6 Sudeste 0 1011.1 -0.9 97
2019-08-06 04:00:00 17 2 Sur 5 Sudeste 0 1011.4 -1 96
2019-08-06 03:00:00 17.6 3 Sudeste 5 Sudeste 0 1011.6 -1.1 96
2019-08-06 02:00:00 18.4 3 Sudeste 6 Sudeste 0 1012 -1 94
2019-08-06 01:00:00 19.6 3 Este 5 Sur 0 1012.4 -0.2 92
2019-08-06 00:00:00 20.8 2 Nordeste 8 Norte 0 1012.7 0.5 88
2019-08-05 23:00:00 21.3 4 Nordeste 10 Nordeste 0 1013 0.9 86
2019-08-05 22:00:00 21.6 7 Nordeste 14 Nordeste 0 1012.6 0.6 84
2019-08-05 21:00:00 22.4 4 Nordeste 14 Nordeste 0 1012.2 0 76
2019-08-05 20:00:00 23.9 7 Nordeste 21 Norte 0 1012.1 -0.4 72
2019-08-05 19:00:00 24.9 13 Nordeste 21 Nordeste 0 1012 -0.8 66
2019-08-05 18:00:00 25.5 12 Norte 23 Norte 0 1012.2 -0.6 61
2019-08-05 17:00:00 25.6 8 Nordeste 24 Norte 0 1012.5 -0.5 64
2019-08-05 16:00:00 24.5 13 Norte 23 Norte 0 1012.8 -0.4 66
2019-08-05 15:00:00 25.2 13 Norte 22 Norte 0 1012.8 -0.6 68
2019-08-05 14:00:00 24.7 13 Norte 23 Nordeste 0 1013 -0.4 70
2019-08-05 13:00:00 24 10 Norte 19 Norte 0 1013.2 -0.4 72
2019-08-05 12:00:00 23.8 10 Nordeste 17 Norte 0 1013.4 -0.3 77
2019-08-05 11:00:00 22.2 10 Norte 15 Noroeste 0 1013.4 -0.5 77
2019-08-05 10:00:00 21.3 4 Noroeste 6 Noroeste 0 1013.6 0 82
2019-08-05 09:00:00 18.2 2 Sudeste 7 Sudeste 0 1013.7 0.4 98
2019-08-05 08:00:00 16.4 2 Sudeste 6 Sudeste 0 1013.9 0.3 97
2019-08-05 07:00:00 16.5 5 Sudeste 6 Sudeste 0 1013.6 -0.2 96
2019-08-05 06:00:00 17.8 2 Sur 4 Sudeste 0 1013.3 -0.5 96
2019-08-05 05:00:00 18.6 0 Calma 3 Sudeste 0 1013.6 -0.5 94
2019-08-05 04:00:00 18.9 0 Calma 5 Sudeste 0 1013.8 -0.7 93
2019-08-05 03:00:00 19 4 Sudeste 5 Sudeste 0 1013.8 -0.9 92
2019-08-05 02:00:00 19.8 2 Sudeste 3 Sudeste 0 1014.1 -0.7 90
2019-08-05 01:00:00 20 3 Sudeste 4 Sudeste 0 1014.5 0 88
2019-08-05 00:00:00 20.3 3 Sudeste 4 Sudeste 0 1014.7 0.3 87
2019-08-04 23:00:00 20.6 4 Norte 5 Norte 0 1014.8 0.7 84
2019-08-04 22:00:00 20.9 3 Norte 8 Noroeste 0 1014.5 0.8 83
2019-08-04 21:00:00 21.2 6 Norte 10 Norte 0 1014.4 -- 82
2019-08-04 20:00:00 21.7 8 Norte 12 Norte 0 1014.1 0.8 79
2019-08-04 19:00:00 22.3 5 Norte -- -- -- 1013.7 0.6 75
2019-08-04 18:00:00 -- -- -- -- -- -- -- -- --
2019-08-04 17:00:00 23 9 Norte 21 Norte 0 1013.3 -0.3 75
2019-08-04 16:00:00 23.6 8 Norte 16 Norte 0 1013.1 -0.5 73
2019-08-04 15:00:00 22.3 9 Norte 17 Norte 0 1013.5 0.4 80
2019-08-04 14:00:00 22 8 Norte 18 Norte 0 1013.6 0.4 81
2019-08-04 13:00:00 22.8 12 Norte 20 Norte 0 1013.6 0.3 74
2019-08-04 12:00:00 23.5 6 Norte 14 Norte 0 1013.1 -0.3 72
2019-08-04 11:00:00 21.8 5 Norte 9 Norte 0 1013.2 0 77
2019-08-04 10:00:00 20.3 3 Este 6 Este 0 1013.3 0.3 89
2019-08-04 09:00:00 18.4 2 Sudeste 5 Sudeste 0 1013.4 0.4 97
2019-08-04 08:00:00 17.4 4 Sudeste 5 Sudeste 0 1013.2 0.2 98
2019-08-04 07:00:00 16.7 4 Sudeste 6 Sudeste 0 1013 0 98
2019-08-04 06:00:00 16.1 2 Sur 4 Sudeste 0 1013 0 98
2019-08-04 05:00:00 16.3 2 Sudeste 5 Sudeste 0 1013 -0.2 97
2019-08-04 04:00:00 16.4 5 Sudeste 6 Este 0 1013 -0.4 97
2019-08-04 03:00:00 16.7 2 Este 5 Sudeste 0 1013 -0.3 96
2019-08-04 02:00:00 17.2 4 Sudeste -- -- -- 1013.2 -0.3 95
2019-08-04 01:00:00 18 4 Sudeste -- -- -- 1013.4 0.6 94
2019-08-04 00:00:00 18.9 3 Sudeste 5 Sudeste 0 1013.3 0.8 92
2019-08-03 23:00:00 20.2 0 Calma 6 Norte 0 1013.5 1 88
2019-08-03 22:00:00 21.2 5 Norte 8 Nordeste 0 1012.8 0.4 83
2019-08-03 21:00:00 22.7 6 Nordeste 10 Nordeste 0 1012.5 0.1 76
2019-08-03 20:00:00 23.7 6 Nordeste 19 Nordeste 0 1012.5 0.2 73
2019-08-03 19:00:00 24.4 10 Nordeste 21 Norte 0 1012.4 -0.1 73
2019-08-03 18:00:00 24.6 13 Norte -- -- -- 1012.4 -0.2 73
2019-08-03 17:00:00 24.9 12 Norte 20 Norte 0 1012.3 -0.3 68
2019-08-03 16:00:00 25.3 8 Nordeste 21 Norte 0 1012.5 -0.1 68
2019-08-03 15:00:00 24.8 6 Nordeste -- -- -- 1012.6 0.1 68
2019-08-03 14:00:00 24 11 Norte 18 Norte 0 1012.6 0.1 75
2019-08-03 13:00:00 23.1 5 Nordeste 12 Norte 0 1012.6 0 73
2019-08-03 12:00:00 22.4 2 Este 7 Oeste 0 1012.5 -0.1 75
2019-08-03 11:00:00 21.5 3 Este 6 Este 0 1012.5 0 78
2019-08-03 10:00:00 20.7 3 Sur -- -- -- 1012.6 0.2 86
2019-08-03 09:00:00 19.5 2 Sur 4 Sur 0 1012.6 0.3 93
2019-08-03 08:00:00 18.8 0 Calma 4 Sudeste 0 1012.5 0.1 95
2019-08-03 07:00:00 18.5 2 Sudeste 3 Sur 0 1012.4 -0.4 95
2019-08-03 06:00:00 18.1 0 Calma 5 Sur 0 1012.3 -0.7 96
2019-08-03 05:00:00 17.5 2 Sur 5 Sudeste 0 1012.4 -1 97
2019-08-03 04:00:00 17 3 Sudeste 6 Sudeste 0 1012.8 -1 97
2019-08-03 03:00:00 16.8 3 Sudeste 6 Sudeste 0 1013 -0.9 95
2019-08-03 02:00:00 17.8 2 Sur 4 Sudeste 0 1013.4 -0.6 93
2019-08-03 01:00:00 18.7 3 Sudeste 14 Este 0 1013.8 0.1 91
2019-08-03 00:00:00 19.7 9 Este -- -- -- 1013.9 0.4 88
2019-08-02 23:00:00 20 9 Este -- -- -- 1014 0.7 86
2019-08-02 22:00:00 20.7 11 Este 22 Este 0 1013.7 0.1 83
2019-08-02 21:00:00 22.2 13 Este 28 Este 0 1013.5 -0.2 76
2019-08-02 20:00:00 23.2 15 Este 28 Este 0 1013.3 -0.8 71
2019-08-02 19:00:00 23.7 14 Este 28 Este 0 1013.6 -0.9 71
2019-08-02 18:00:00 24.7 12 Nordeste 25 Norte 0 1013.7 -0.9 69
2019-08-02 17:00:00 24.8 12 Nordeste 30 Este 0 1014.1 -0.7 69
2019-08-02 16:00:00 24.4 13 Nordeste 35 Este 0 1014.5 -0.4 68
2019-08-02 15:00:00 24.4 16 Nordeste 30 Nordeste 0 1014.6 -0.6 66
2019-08-02 14:00:00 24.3 12 Nordeste 27 Norte 0 1014.8 -0.5 66
2019-08-02 13:00:00 25.4 15 Nordeste 26 Norte 0 1014.9 -- 67
2019-08-02 12:00:00 24.2 10 Este 22 Este 0 1015.2 0.2 66
2019-08-02 11:00:00 22.8 11 Este -- -- -- 1015.3 0.7 70
2019-08-02 10:00:00 -- -- -- -- -- -- -- -- --
2019-08-02 09:00:00 16.4 0 Calma 6 Sudeste 0 1015 0.9 97
2019-08-02 08:00:00 13.2 3 Sudeste 7 Sudeste 0 1014.6 0.3 99
2019-08-02 07:00:00 12.9 2 Sur 5 Sudeste 0 1014.2 -0.2 98
2019-08-02 06:00:00 13.4 3 Sudeste 5 Sudeste 0 1014.1 -0.7 98
2019-08-02 05:00:00 13.7 3 Sudeste 4 Sudeste 0 1014.3 -- 97
2019-08-02 04:00:00 14.2 0 Calma 6 Sudeste 0 1014.4 -1 97
2019-08-02 03:00:00 14.9 4 Sudeste 6 Este 0 1014.8 -0.6 95
2019-08-02 02:00:00 -- -- -- -- -- -- -- -- --
2019-08-02 01:00:00 17.3 0 Calma 6 Este 0 1015.4 0.6 92
2019-08-02 00:00:00 18.3 2 Sur -- -- -- 1015.4 1 88
2019-08-01 23:00:00 19.8 4 Este 10 Este 0 1015.3 1.3 82
2019-08-01 22:00:00 20.1 4 Nordeste 17 Nordeste 0 1014.8 1.2 80
2019-08-01 21:00:00 20.8 8 Este 20 Norte 0 1014.4 1.1 78
2019-08-01 20:00:00 21.5 9 Nordeste 21 Este 0 1014 0.7 78
2019-08-01 19:00:00 22.2 10 Nordeste 28 Norte 0 1013.6 0.3 77
2019-08-01 18:00:00 22.8 10 Nordeste 27 Nordeste 0 1013.3 0 75
2019-08-01 17:00:00 23 11 Nordeste 24 Nordeste 0 1013.3 -0.2 75
2019-08-01 16:00:00 22.4 13 Norte 21 Norte 0 1013.3 -0.2 76
2019-08-01 15:00:00 21.9 8 Norte 19 Norte 0 1013.3 -0.3 79
2019-08-01 14:00:00 21.3 7 Nordeste 17 Este 0 1013.5 0.1 84
2019-08-01 13:00:00 21.1 4 Este 18 Nordeste 0 1013.5 0.4 82
2019-08-01 12:00:00 20.4 10 Nordeste 18 Nordeste 0 1013.6 0.7 84
2019-08-01 11:00:00 19.5 3 Nordeste -- -- -- 1013.4 0.7 93
2019-08-01 10:00:00 18.5 0 Calma 10 Este 1.2 1013.1 0.4 94
2019-08-01 09:00:00 18.4 4 Este 11 Este 0 1012.9 0.2 90
2019-08-01 08:00:00 17.6 2 Este -- -- -- 1012.7 0.1 86
2019-08-01 07:00:00 17.7 3 Sur 9 Nordeste 0 1012.7 -0.5 85
2019-08-01 06:00:00 17.7 3 Este -- -- -- 1012.7 -1 83
2019-08-01 05:00:00 18.1 4 Este -- -- -- 1012.6 -1.5 79
2019-08-01 04:00:00 18.5 4 Sudeste 12 Sudeste 0 1013.2 -1.4 77
2019-08-01 03:00:00 18.9 6 Este 14 Este 0 1013.7 -0.9 78
2019-08-01 02:00:00 18.9 5 Este 14 Nordeste 0 1014.1 -1 79
2019-08-01 01:00:00 18.2 3 Este 12 Este 0 1014.6 0.1 82
2019-08-01 00:00:00 18.7 7 Este 14 Este 0 1014.6 0.2 78
2019-07-31 23:00:00 18.6 4 Este 15 Este 0 1015.1 0.6 77
2019-07-31 22:00:00 19.2 8 Este 24 Este 0 1014.5 -0.2 72
2019-07-31 21:00:00 20 11 Este 28 Este 0 1014.4 -0.3 68
2019-07-31 20:00:00 21 10 Nordeste 24 Nordeste 0 1014.5 -0.6 65
2019-07-31 19:00:00 21.5 12 Este -- -- -- 1014.7 -0.4 64
2019-07-31 18:00:00 21.9 14 Este 30 Este 0 1014.7 -0.6 64
2019-07-31 17:00:00 22 12 Nordeste 30 Nordeste 0 1015.1 -0.7 60
2019-07-31 16:00:00 22.7 11 Nordeste 33 Norte 0 1015.1 -1.2 57
2019-07-31 15:00:00 22.9 13 Nordeste 36 Nordeste 0 1015.3 -1.5 58
2019-07-31 14:00:00 22.8 17 Nordeste 33 Nordeste 0 1015.8 -1.2 62
2019-07-31 13:00:00 22.4 13 Nordeste 30 Nordeste 0 1016.3 -- 63
2019-07-31 12:00:00 21.2 15 Norte 27 Norte 0 1016.8 -0.5 70
2019-07-31 11:00:00 20.5 9 Nordeste -- -- -- 1017 -0.2 70
2019-07-31 10:00:00 -- -- -- -- -- -- -- -- --
2019-07-31 09:00:00 14.6 0 Calma -- -- -- 1017.3 0.1 87
2019-07-31 08:00:00 11 2 Sudeste 5 Sudeste 0 1017.2 -0.2 98
2019-07-31 07:00:00 10.7 5 Sudeste 6 Sudeste 0 1017.1 -0.5 97
2019-07-31 06:00:00 11.2 3 Sudeste 6 Sudeste 0 1017.2 -0.8 95
2019-07-31 05:00:00 11.9 2 Sudeste 5 Sudeste 0 1017.4 -1 94
2019-07-31 04:00:00 12.8 4 Sudeste 5 Sudeste 0 1017.6 -1.2 92
2019-07-31 03:00:00 14.2 4 Sudeste 5 Este 0 1018 -1 90
2019-07-31 02:00:00 16.1 3 Sudeste 4 Sudeste 0 1018.4 -0.6 84
2019-07-31 01:00:00 17.2 3 Sudeste 5 Sudeste 0 1018.8 0.2 79
2019-07-31 00:00:00 17.5 4 Sudeste 7 Norte 0 1019 0.5 76
2019-07-30 23:00:00 18.2 4 Norte 9 Norte 0 1019 0.7 70
2019-07-30 22:00:00 18.4 5 Norte 10 Noroeste 0 1018.6 0.3 67
2019-07-30 21:00:00 18.7 7 Norte 16 Norte 0 1018.5 0 65
2019-07-30 20:00:00 19 11 Norte 22 Norte 0 1018.3 -0.2 64
2019-07-30 19:00:00 19.7 13 Norte 28 Norte 0 1018.3 -0.2 62
2019-07-30 18:00:00 21 19 Norte 30 Norte 0 1018.5 0 61
2019-07-30 17:00:00 20.7 18 Noroeste 32 Noroeste 0 1018.5 -0.1 60
2019-07-30 16:00:00 20.9 20 Norte 36 Noroeste 0 1018.5 0 62
2019-07-30 15:00:00 20.8 22 Noroeste 34 Noroeste 0 1018.5 0.1 65
2019-07-30 14:00:00 21.1 19 Noroeste 30 Noroeste 0 1018.6 0.7 53
2019-07-30 13:00:00 20.9 9 Oeste 25 Norte 0 1018.5 0.6 53
2019-07-30 12:00:00 19.4 11 Oeste 19 Oeste 0 1018.4 0.9 56
2019-07-30 11:00:00 20.1 9 Oeste 21 Oeste 0 1017.9 1.1 57
2019-07-30 10:00:00 18.7 5 Sudoeste 12 Sudoeste 0 1017.9 1.5 60
2019-07-30 09:00:00 17.3 5 Sudoeste 12 Sudoeste 0 1017.5 1.5 63
2019-07-30 08:00:00 16.8 5 Sudoeste 16 Sudoeste 0 1016.8 0.9 64
2019-07-30 07:00:00 15.4 5 Sur 11 Sur 0 1016.4 0.8 70
2019-07-30 06:00:00 15.6 4 Sudoeste 11 Sudoeste 0 1016 0.3 68
2019-07-30 05:00:00 15 3 Sudoeste 9 Sur 0 1015.9 0.6 70
2019-07-30 04:00:00 15.6 4 Sudoeste 12 Sudoeste 0 1015.6 1 68
2019-07-30 03:00:00 15.2 5 Sudoeste 10 Sudoeste 0 1015.7 1.4 71
2019-07-30 02:00:00 14.9 4 Sudoeste 9 Sudoeste 0 1015.3 1.6 76
2019-07-30 01:00:00 16.4 3 Sur -- -- -- 1014.6 1.8 74
2019-07-30 00:00:00 18.1 5 Sudoeste 28 Oeste 0 1014.3 2.2 65
2019-07-29 23:00:00 18.9 13 Oeste 31 Oeste 0 1013.7 2.3 64
2019-07-29 22:00:00 19.2 14 Oeste 36 Noroeste 0 1012.8 2 62
2019-07-29 21:00:00 20.3 15 Oeste 42 Oeste 0 1012.1 2.1 62
2019-07-29 20:00:00 21.5 15 Oeste 51 Oeste 0 1011.4 1.6 59
2019-07-29 19:00:00 22 22 Oeste 51 Oeste 0 1010.8 1.6 57
2019-07-29 18:00:00 22.5 23 Noroeste 46 Noroeste 0 1010 1.4 54
2019-07-29 17:00:00 23.3 20 Noroeste 44 Noroeste 0 1009.8 1.6 56
2019-07-29 16:00:00 24.5 17 Noroeste 46 Noroeste 0 1009.2 1 49
2019-07-29 15:00:00 24 25 Noroeste 40 Noroeste 0 1008.6 0.4 54
2019-07-29 14:00:00 25.1 21 Oeste 38 Oeste 0 1008.2 0.2 39
2019-07-29 13:00:00 23.4 8 Norte 24 Norte 0 1008.2 0.5 53
2019-07-29 12:00:00 22.6 5 Norte 14 Noroeste 0 1008.2 0.7 63
2019-07-29 11:00:00 21 10 Oeste 17 Sudoeste 0 1008 1.2 69
2019-07-29 10:00:00 19 3 Sur 6 Sudeste 0 1007.7 1.2 87
2019-07-29 09:00:00 16.6 0 Calma 8 Norte 0 1007.5 1.2 94
2019-07-29 08:00:00 15.1 4 Norte 7 Sudeste 0 1006.8 0.8 99
2019-07-29 07:00:00 14 4 Sur 9 Este 0 1006.5 0.6 97
2019-07-29 06:00:00 14.2 5 Sudeste 10 Sudeste 0 1006.3 0.1 98
2019-07-29 05:00:00 14.6 5 Sudeste 7 Sudeste 0 1006 -0.4 97
2019-07-29 04:00:00 15.1 2 Sudoeste 7 Este 0 1005.9 -0.5 97
2019-07-29 03:00:00 15.4 2 Sudeste 8 Sudeste 0 1006.2 0 96
2019-07-29 02:00:00 15.6 6 Sudeste 8 Sudeste 0 1006.4 0.3 94
2019-07-29 01:00:00 16.2 6 Sudeste 8 Sudeste 0 1006.4 0.4 92
2019-07-29 00:00:00 17.4 3 Sudeste 10 Este 0 1006.2 0.1 87
2019-07-28 23:00:00 19 8 Este 15 Este 0 1006.1 -0.1 79
2019-07-28 22:00:00 20 6 Este 19 Este 0 1006 -0.6 75
2019-07-28 21:00:00 22 8 Este 24 Nordeste 0 1006.1 -1.1 67
2019-07-28 20:00:00 23.2 10 Este 23 Este 0 1006.2 -1.7 63
2019-07-28 19:00:00 23.7 13 Este 23 Este 0 1006.6 -2.1 63
2019-07-28 18:00:00 24.2 8 Nordeste 25 Nordeste 0 1007.2 -2.1 63
2019-07-28 17:00:00 23.6 10 Nordeste 25 Nordeste 0 1007.9 -1.9 62
2019-07-28 16:00:00 23.1 11 Nordeste 27 Norte 0 1008.7 -1.7 61
2019-07-28 15:00:00 22.8 17 Nordeste 26 Nordeste 0 1009.3 -1.2 67
2019-07-28 14:00:00 22.6 13 Nordeste 24 Norte 0 1009.8 -1.1 71
2019-07-28 13:00:00 22.5 10 Nordeste 19 Norte 0 1010.4 -0.7 65
2019-07-28 12:00:00 21.4 8 Norte 14 Norte 0 1010.5 -0.7 67
2019-07-28 11:00:00 20.4 4 Oeste 10 Oeste 0 1010.9 -0.2 67
2019-07-28 10:00:00 18.7 5 Sudoeste 8 Sudoeste 0 1011.1 0.2 76
2019-07-28 09:00:00 15.7 0 Calma 5 Sudeste 0 1011.2 0 93
2019-07-28 08:00:00 12.6 4 Noroeste 6 Norte 0 1011.1 -0.1 100
2019-07-28 07:00:00 12 2 Sur 8 Sudeste 0 1010.9 -0.7 98
2019-07-28 06:00:00 12.6 5 Sudeste 8 Sudeste 0 1011.2 -0.9 97
2019-07-28 05:00:00 13.3 3 Sudoeste 8 Noroeste 0 1011.2 -1.1 98
2019-07-28 04:00:00 13.3 2 Noroeste 7 Sudeste 0 1011.6 -0.8 98
2019-07-28 03:00:00 13.5 3 Sudeste 6 Sudeste 0 1012.1 -0.2 96
2019-07-28 02:00:00 14.1 2 Nordeste 6 Sudeste 0 1012.3 -0.2 95
2019-07-28 01:00:00 15 4 Sudeste 5 Sudeste 0 1012.4 0.6 92
2019-07-28 00:00:00 16.5 3 Sur 8 Sudoeste 0 1012.3 0.9 87
2019-07-27 23:00:00 17.1 5 Sur -- -- -- 1012.5 1.4 85
2019-07-26 12:00:00 20.8 12 Oeste 23 Oeste 0 1013.2 0.4 70
2019-07-26 11:00:00 20 7 Oeste 14 Oeste 0 1013.2 0.8 79
2019-07-26 10:00:00 19.1 3 Sudoeste 6 Sudeste 0 1013.2 0.9 92
2019-07-26 09:00:00 18.4 4 Sur 7 Sudoeste 0 1012.8 0.7 96
2019-07-26 08:00:00 17.9 3 Sudoeste 5 Sudoeste 0 1012.4 0.2 97
2019-07-26 07:00:00 18 3 Sudoeste 8 Oeste 0 1012.3 0.1 96
2019-07-26 06:00:00 18 4 Sur 6 Sur 0 1012.1 -0.4 98
2019-07-26 05:00:00 18.2 4 Sudeste 7 Sudeste 0.2 1012.2 -0.7 98
2019-07-26 04:00:00 18.3 5 Norte 10 Norte 0.6 1012.2 -0.6 98
2019-07-26 03:00:00 18.3 4 Este 8 Sudeste 0.2 1012.5 -0.7 97
2019-07-26 02:00:00 18.7 3 Sur 9 Norte 0.8 1012.9 0.5 97
2019-07-26 01:00:00 18.7 2 Sudeste 11 Sudoeste 2 1012.8 1 97
2019-07-26 00:00:00 19.2 6 Sur 11 Sudoeste 1.8 1013.2 1.6 97